Time;durP1;ratioP1;P1;durP2;ratioP2;P2;SDS_P1;SDS_P2;PMS_P1;PMS_P2;Temp;Humidity;BMP_temperature;BMP_pressure;BME280_temperature;BME280_humidity;BME280_pressure;Samples;Min_cycle;Max_cycle;Signal;HPM_P1;HPM_P2
2021/11/13 00:00:19;;;;;;;24.10;17.80;;;1.70;99.90;;;;;;5076759;28;20419;-82
2021/11/13 00:02:44;;;;;;;26.90;18.43;;;1.70;99.90;;;;;;5076474;28;20419;-83
2021/11/13 00:05:10;;;;;;;28.07;16.50;;;;;;;;;;5071371;28;20453;-83
2021/11/13 00:07:36;;;;;;;20.13;13.90;;;;;;;;;;5083942;28;20207;-83
2021/11/13 00:10:04;;;;;;;21.43;15.00;;;1.60;99.90;;;;;;5082629;28;20808;-83
2021/11/13 00:12:30;;;;;;;19.53;13.50;;;;;;;;;;5081423;28;20407;-83
2021/11/13 00:14:56;;;;;;;37.60;14.53;;;;;;;;;;5064975;28;20439;-83
2021/11/13 00:17:22;;;;;;;21.87;14.97;;;;;;;;;;5065338;28;20467;-83
2021/11/13 00:19:47;;;;;;;24.40;14.70;;;1.70;99.90;;;;;;5065232;28;20766;-83
2021/11/13 00:22:13;;;;;;;21.33;14.80;;;;;;;;;;5081127;28;20264;-83
2021/11/13 00:24:39;;;;;;;22.83;15.13;;;1.70;99.90;;;;;;5062798;28;20200;-83
2021/11/13 00:27:06;;;;;;;20.20;14.17;;;1.80;99.90;;;;;;5063866;28;20779;-83
2021/11/13 00:29:32;;;;;;;19.20;13.43;;;;;;;;;;5063219;28;20188;-83
2021/11/13 00:31:58;;;;;;;24.47;15.83;;;;;;;;;;5062068;28;20515;-83
2021/11/13 00:34:25;;;;;;;16.73;12.07;;;;;;;;;;5080781;28;20829;-83
2021/11/13 00:36:51;;;;;;;17.47;12.67;;;1.80;99.90;;;;;;5063673;28;20471;-83
2021/11/13 00:39:17;;;;;;;20.53;13.57;;;1.80;99.90;;;;;;5063997;28;20173;-83
2021/11/13 00:41:43;;;;;;;19.93;12.77;;;;;;;;;;5063836;28;20177;-83
2021/11/13 00:44:09;;;;;;;18.73;12.43;;;1.90;99.90;;;;;;5063758;28;20427;-83
2021/11/13 00:46:36;;;;;;;22.07;13.97;;;1.90;99.90;;;;;;5064311;28;20246;-83
2021/11/13 00:49:03;;;;;;;23.57;14.60;;;2.00;99.90;;;;;;5064269;28;20494;-83
2021/11/13 00:51:29;;;;;;;20.03;11.80;;;2.00;99.90;;;;;;5064810;28;20427;-83
2021/11/13 00:53:54;;;;;;;23.07;14.17;;;2.40;99.90;;;;;;5084752;28;20441;-83
2021/11/13 00:56:20;;;;;;;18.23;12.40;;;;;;;;;;5068352;28;20281;-82
2021/11/13 00:58:47;;;;;;;19.00;13.10;;;;;;;;;;5079947;28;20180;-83
2021/11/13 01:01:13;;;;;;;20.40;13.47;;;2.30;99.90;;;;;;5061939;28;20407;-83
2021/11/13 01:03:39;;;;;;;20.80;11.87;;;;;;;;;;5061798;28;20444;-82
2021/11/13 01:06:05;;;;;;;21.30;13.13;;;2.40;99.90;;;;;;5079780;28;20920;-83
2021/11/13 01:08:31;;;;;;;16.90;11.80;;;2.70;99.90;;;;;;5061910;28;20446;-82
2021/11/13 01:10:57;;;;;;;26.13;15.00;;;;;;;;;;5079478;28;20187;-83
2021/11/13 01:13:23;;;;;;;20.53;12.13;;;;;;;;;;5080177;28;20181;-83
2021/11/13 01:15:49;;;;;;;24.60;14.57;;;2.60;99.90;;;;;;5079694;28;20506;-83
2021/11/13 01:18:16;;;;;;;20.47;13.10;;;2.60;99.90;;;;;;5080031;28;20627;-83
2021/11/13 01:20:42;;;;;;;22.73;13.10;;;2.60;99.90;;;;;;5080153;28;20903;-83
2021/11/13 01:23:07;;;;;;;21.53;12.17;;;2.70;99.90;;;;;;5079734;28;20193;-83
2021/11/13 01:25:34;;;;;;;21.23;13.03;;;3.00;99.90;;;;;;5080072;28;20272;-83
2021/11/13 01:28:00;;;;;;;20.00;12.20;;;2.90;99.90;;;;;;5061818;28;20638;-83
2021/11/13 01:30:26;;;;;;;18.90;12.33;;;2.90;99.90;;;;;;5062728;28;20526;-83
2021/11/13 01:32:52;;;;;;;18.20;12.33;;;3.20;99.90;;;;;;5080797;28;20197;-83
2021/11/13 01:35:21;;;;;;;18.57;12.50;;;2.90;99.90;;;;;;5061929;28;20201;-83
2021/11/13 01:37:47;;;;;;;16.43;11.10;;;2.80;99.90;;;;;;5065580;28;20666;-83
2021/11/13 01:40:16;;;;;;;20.43;12.27;;;2.80;99.90;;;;;;5065687;28;20414;-83
2021/11/13 01:42:43;;;;;;;17.43;11.90;;;2.70;99.90;;;;;;5083680;28;20423;-83
2021/11/13 01:45:10;;;;;;;18.23;11.60;;;2.80;99.90;;;;;;5065612;28;20435;-84
2021/11/13 01:47:38;;;;;;;19.50;13.03;;;2.70;99.90;;;;;;5083847;28;20173;-83
2021/11/13 01:50:17;;;;;;;17.10;11.97;;;2.70;99.90;;;;;;5084119;28;20403;-83
2021/11/13 01:52:44;;;;;;;19.60;12.27;;;2.70;99.90;;;;;;5083077;28;20154;-83
2021/11/13 01:55:11;;;;;;;19.37;13.40;;;2.70;99.90;;;;;;5079777;28;20196;-83
2021/11/13 01:57:47;;;;;;;22.47;12.80;;;2.70;99.90;;;;;;5061327;28;20201;-83
2021/11/13 02:00:17;;;;;;;18.93;12.33;;;2.70;99.90;;;;;;5061000;28;20183;-83
2021/11/13 02:02:43;;;;;;;20.87;13.33;;;2.80;99.90;;;;;;5062232;28;20169;-82
2021/11/13 02:05:09;;;;;;;22.67;12.53;;;2.90;99.90;;;;;;5091334;28;20452;-83
2021/11/13 02:07:36;;;;;;;22.93;11.47;;;2.90;99.90;;;;;;5072801;28;20177;-83
2021/11/13 02:10:05;;;;;;;26.57;12.87;;;2.90;99.90;;;;;;5082377;28;20268;-83
2021/11/13 02:12:30;;;;;;;25.27;13.37;;;3.00;99.90;;;;;;5064875;28;20188;-83
2021/11/13 02:14:56;;;;;;;21.97;13.63;;;3.60;99.90;;;;;;5082927;28;20272;-83
2021/11/13 02:17:22;;;;;;;21.13;12.93;;;2.90;99.90;;;;;;5083312;28;20199;-83
2021/11/13 02:19:52;;;;;;;21.77;12.70;;;3.00;99.90;;;;;;5064617;28;20225;-83
2021/11/13 02:22:18;;;;;;;23.07;13.33;;;2.90;99.90;;;;;;5083511;28;20639;-83
2021/11/13 02:24:44;;;;;;;19.83;13.07;;;2.90;99.90;;;;;;5066006;28;20219;-83
2021/11/13 02:27:11;;;;;;;21.80;12.23;;;2.90;99.90;;;;;;5065263;28;20541;-83
2021/11/13 02:29:37;;;;;;;21.17;12.00;;;2.90;99.90;;;;;;5065272;28;20189;-83
2021/11/13 02:32:03;;;;;;;17.40;11.63;;;3.00;99.90;;;;;;5065883;28;20426;-83
2021/11/13 02:34:29;;;;;;;24.23;13.37;;;3.00;99.90;;;;;;5085510;28;20241;-82
2021/11/13 02:36:55;;;;;;;17.53;10.60;;;2.90;99.90;;;;;;5068290;28;20288;-83
2021/11/13 02:39:22;;;;;;;17.97;11.37;;;2.80;99.90;;;;;;5064160;28;20180;-83
2021/11/13 02:41:48;;;;;;;18.93;11.97;;;2.90;99.90;;;;;;5064602;28;20192;-83
2021/11/13 02:44:17;;;;;;;29.80;19.43;;;2.90;99.90;;;;;;5064354;28;20408;-83
2021/11/13 02:46:43;;;;;;;34.17;22.73;;;2.80;99.90;;;;;;5064331;28;20440;-83
2021/11/13 02:49:09;;;;;;;23.93;14.37;;;3.00;99.90;;;;;;5082344;28;20181;-83
2021/11/13 02:51:36;;;;;;;32.07;18.00;;;2.70;99.90;;;;;;5082978;28;20193;-83
2021/11/13 02:54:03;;;;;;;25.90;16.07;;;0.60;99.90;;;;;;5066016;28;20180;-83
2021/11/13 02:56:29;;;;;;;67.80;29.90;;;2.70;99.90;;;;;;5067002;28;20450;-83
2021/11/13 02:58:55;;;;;;;57.00;28.27;;;2.60;99.90;;;;;;5084703;28;20181;-83
2021/11/13 03:01:23;;;;;;;53.43;24.87;;;2.60;99.90;;;;;;5066382;28;20414;-83
2021/11/13 03:03:51;;;;;;;58.97;28.73;;;2.60;99.90;;;;;;5064744;28;20423;-83
2021/11/13 03:06:17;;;;;;;69.37;38.27;;;2.60;99.90;;;;;;5064523;28;20201;-83
2021/11/13 03:08:44;;;;;;;38.57;21.23;;;2.60;99.90;;;;;;5064934;28;20185;-83
2021/11/13 03:11:13;;;;;;;24.03;13.27;;;2.60;99.90;;;;;;5065083;28;20634;-83
2021/11/13 03:13:42;;;;;;;28.83;16.83;;;2.60;99.90;;;;;;5065490;28;20180;-83
2021/11/13 03:16:09;;;;;;;27.03;16.60;;;2.60;99.90;;;;;;5065114;28;20439;-83
2021/11/13 03:18:35;;;;;;;28.27;18.47;;;2.60;99.90;;;;;;5067189;28;20411;-83
2021/11/13 03:21:05;;;;;;;21.13;14.37;;;2.60;99.90;;;;;;5086500;28;20192;-83
2021/11/13 03:23:32;;;;;;;18.60;12.17;;;2.60;99.90;;;;;;5070124;28;20236;-83
2021/11/13 03:25:59;;;;;;;21.10;14.13;;;2.60;99.90;;;;;;5064479;28;20728;-83
2021/11/13 03:28:28;;;;;;;28.57;18.97;;;2.60;99.90;;;;;;5064141;28;20169;-83
2021/11/13 03:30:54;;;;;;;23.33;15.37;;;3.50;99.90;;;;;;5064552;28;20184;-83
2021/11/13 03:33:20;;;;;;;23.73;15.80;;;2.50;99.90;;;;;;5065481;28;20404;-82
2021/11/13 03:35:47;;;;;;;23.97;15.07;;;2.40;99.90;;;;;;5064986;28;20532;-83
2021/11/13 03:38:15;;;;;;;21.67;12.37;;;2.40;99.90;;;;;;5064581;28;20456;-83
2021/11/13 03:40:47;;;;;;;19.47;13.00;;;2.30;99.90;;;;;;5065382;28;20253;-83
2021/11/13 03:43:14;;;;;;;23.87;13.67;;;2.20;99.90;;;;;;5065971;28;20536;-82
2021/11/13 03:45:41;;;;;;;20.00;11.87;;;2.10;99.90;;;;;;5065087;28;20305;-83
2021/11/13 03:48:07;;;;;;;20.47;11.03;;;2.10;99.90;;;;;;5066218;28;20256;-83
2021/11/13 03:50:33;;;;;;;21.50;11.30;;;2.20;99.90;;;;;;5065529;28;20196;-83
2021/11/13 03:52:59;;;;;;;16.80;10.53;;;;;;;;;;5083272;28;20184;-83
2021/11/13 03:55:25;;;;;;;17.33;10.40;;;2.00;99.90;;;;;;5083733;28;20434;-83
2021/11/13 03:57:52;;;;;;;17.13;10.73;;;2.00;99.90;;;;;;5071130;28;20231;-82
2021/11/13 04:00:19;;;;;;;16.10;10.20;;;2.80;99.90;;;;;;5077767;28;20177;-82
2021/11/13 04:02:47;;;;;;;19.50;11.57;;;2.20;99.90;;;;;;5072089;28;20826;-83
2021/11/13 04:05:14;;;;;;;15.23;9.70;;;1.90;99.90;;;;;;5065563;28;20960;-82
2021/11/13 04:07:40;;;;;;;18.20;10.57;;;1.80;99.90;;;;;;5080935;28;20917;-83
2021/11/13 04:10:07;;;;;;;16.87;11.03;;;2.50;99.90;;;;;;5064811;28;20431;-83
2021/11/13 04:12:34;;;;;;;17.50;10.83;;;1.90;99.90;;;;;;5064084;28;20419;-83
2021/11/13 04:15:01;;;;;;;17.07;10.03;;;;;;;;;;5063956;28;20443;-83
2021/11/13 04:17:27;;;;;;;16.87;10.73;;;1.90;99.90;;;;;;5064354;28;20487;-83
2021/11/13 04:19:53;;;;;;;18.17;9.83;;;;;;;;;;5064188;28;20979;-82
2021/11/13 04:22:19;;;;;;;17.97;10.70;;;1.80;99.90;;;;;;5063653;28;20223;-82
2021/11/13 04:24:45;;;;;;;17.07;10.87;;;;;;;;;;5080918;28;20428;-83
2021/11/13 04:27:11;;;;;;;18.03;11.27;;;1.80;99.90;;;;;;5063928;28;20655;-84
2021/11/13 04:29:36;;;;;;;15.13;9.63;;;1.80;99.90;;;;;;5081389;28;20183;-82
2021/11/13 04:32:03;;;;;;;15.73;9.73;;;3.10;99.90;;;;;;5062752;28;20181;-82
2021/11/13 04:34:33;;;;;;;15.77;9.63;;;1.80;99.90;;;;;;5063165;28;20242;-83
2021/11/13 04:37:01;;;;;;;21.67;10.60;;;;;;;;;;5063045;28;20557;-82
2021/11/13 04:39:27;;;;;;;19.03;10.50;;;1.90;99.90;;;;;;5062562;28;20974;-82
2021/11/13 04:41:54;;;;;;;17.37;9.67;;;1.90;99.90;;;;;;5063109;28;20415;-83
2021/11/13 04:44:20;;;;;;;16.17;9.63;;;1.90;99.90;;;;;;5080793;28;20165;-83
2021/11/13 04:46:46;;;;;;;19.07;10.67;;;1.90;99.90;;;;;;5064245;28;20483;-82
2021/11/13 04:49:12;;;;;;;23.00;11.17;;;1.90;99.90;;;;;;5063463;28;20248;-82
2021/11/13 04:51:39;;;;;;;28.87;14.63;;;1.80;99.90;;;;;;5061692;28;20181;-82
2021/11/13 04:54:04;;;;;;;29.50;15.63;;;1.70;99.90;;;;;;5061047;28;20184;-82
2021/11/13 04:56:30;;;;;;;29.30;17.47;;;1.70;99.90;;;;;;5078375;28;20460;-82
2021/11/13 04:58:56;;;;;;;26.03;13.33;;;2.20;99.90;;;;;;5077931;28;20187;-82
2021/11/13 05:01:21;;;;;;;16.97;10.73;;;1.70;99.90;;;;;;5058997;28;20184;-82
2021/11/13 05:03:47;;;;;;;20.17;11.03;;;;;;;;;;5058672;28;20272;-82
2021/11/13 05:06:13;;;;;;;14.80;10.03;;;;;;;;;;5057490;28;20196;-82
2021/11/13 05:08:39;;;;;;;17.87;11.40;;;;;;;;;;5058014;28;20462;-82
2021/11/13 05:11:05;;;;;;;16.80;10.57;;;1.60;99.90;;;;;;5062953;28;20415;-83
2021/11/13 05:13:31;;;;;;;17.83;9.47;;;1.50;99.90;;;;;;5067822;28;20176;-83
2021/11/13 05:15:57;;;;;;;14.90;9.63;;;;;;;;;;5067734;28;20204;-83
2021/11/13 05:18:22;;;;;;;17.03;10.20;;;1.50;99.90;;;;;;5068300;28;20219;-82
2021/11/13 05:20:48;;;;;;;17.37;10.27;;;1.50;99.90;;;;;;5067068;28;20525;-83
2021/11/13 05:23:14;;;;;;;12.60;9.13;;;;;;;;;;5067443;28;20178;-83
2021/11/13 05:25:40;;;;;;;14.63;10.00;;;;;;;;;;5085007;28;20215;-82
2021/11/13 05:28:06;;;;;;;13.47;9.27;;;;;;;;;;5067086;28;20909;-82
2021/11/13 05:30:32;;;;;;;15.63;10.50;;;;;;;;;;5066994;28;20419;-82
2021/11/13 05:32:59;;;;;;;13.87;9.63;;;;;;;;;;5086254;28;20430;-82
2021/11/13 05:35:25;;;;;;;15.63;9.73;;;;;;;;;;5085406;28;20430;-82
2021/11/13 05:37:52;;;;;;;15.30;9.93;;;1.20;99.90;;;;;;5068327;28;20462;-82
2021/11/13 05:40:18;;;;;;;16.20;10.57;;;;;;;;;;5085463;28;20438;-82
2021/11/13 05:42:44;;;;;;;14.23;10.07;;;;;;;;;;5086246;28;20407;-82
2021/11/13 05:45:12;;;;;;;17.50;11.03;;;1.20;99.90;;;;;;5070379;28;20802;-82
2021/11/13 05:47:38;;;;;;;16.73;10.90;;;1.50;99.90;;;;;;5075170;28;20423;-81
2021/11/13 05:50:09;;;;;;;15.60;10.37;;;2.10;99.90;;;;;;5097267;28;20410;-82
2021/11/13 05:52:35;;;;;;;15.13;10.83;;;1.20;99.90;;;;;;5079406;28;20419;-81
2021/11/13 05:55:01;;;;;;;21.17;11.13;;;;;;;;;;5070223;28;20439;-82
2021/11/13 05:57:27;;;;;;;14.30;10.43;;;1.20;99.90;;;;;;5083715;28;20950;-82
2021/11/13 05:59:53;;;;;;;17.17;9.97;;;;;;;;;;5066330;28;20177;-82
2021/11/13 06:02:19;;;;;;;16.00;10.43;;;1.10;99.90;;;;;;5083683;28;20175;-82
2021/11/13 06:04:45;;;;;;;21.07;11.83;;;;;;;;;;5065524;28;20506;-82
2021/11/13 06:07:11;;;;;;;16.93;11.23;;;;;;;;;;5066692;28;20188;-83
2021/11/13 06:09:37;;;;;;;15.80;10.03;;;0.90;99.90;;;;;;5066503;28;20411;-82
2021/11/13 06:12:03;;;;;;;13.60;9.43;;;2.20;99.90;;;;;;5066072;28;20418;-82
2021/11/13 06:14:28;;;;;;;15.70;10.80;;;0.90;99.90;;;;;;5083950;28;20251;-82
2021/11/13 06:16:54;;;;;;;17.13;11.33;;;;;;;;;;5065716;28;20200;-82
2021/11/13 06:19:20;;;;;;;16.40;10.77;;;0.90;99.90;;;;;;5083999;28;20172;-82
2021/11/13 06:21:46;;;;;;;16.70;10.47;;;1.60;99.90;;;;;;5066332;28;20196;-83
2021/11/13 06:24:12;;;;;;;17.47;10.87;;;1.00;99.90;;;;;;5066550;28;20223;-83
2021/11/13 06:26:37;;;;;;;19.10;10.90;;;2.00;99.90;;;;;;5066294;28;20208;-82
2021/11/13 06:29:03;;;;;;;25.33;10.53;;;1.10;99.90;;;;;;5067320;28;20464;-82
2021/11/13 06:31:29;;;;;;;17.07;10.67;;;1.10;99.90;;;;;;5067030;28;20177;-82
2021/11/13 06:33:55;;;;;;;15.00;10.07;;;1.30;99.90;;;;;;5066799;28;20189;-82
2021/11/13 06:36:20;;;;;;;18.67;12.57;;;1.20;99.90;;;;;;5084751;28;20751;-83
2021/11/13 06:38:46;;;;;;;17.63;11.43;;;1.20;99.90;;;;;;5068124;28;20617;-82
2021/11/13 06:41:12;;;;;;;18.93;12.00;;;1.30;99.90;;;;;;5067657;28;20177;-83
2021/11/13 06:43:37;;;;;;;18.80;11.70;;;1.30;99.90;;;;;;5085843;28;20191;-82
2021/11/13 06:46:03;;;;;;;17.50;10.70;;;1.40;99.90;;;;;;5068017;28;20194;-83
2021/11/13 06:48:29;;;;;;;21.43;11.03;;;1.50;99.90;;;;;;5068538;28;20599;-82
2021/11/13 06:50:54;;;;;;;17.50;11.17;;;1.90;99.90;;;;;;5067590;28;20176;-82
2021/11/13 06:53:20;;;;;;;16.57;10.23;;;1.60;99.90;;;;;;5086103;28;20176;-83
2021/11/13 06:55:48;;;;;;;16.27;9.67;;;1.60;99.90;;;;;;5067116;28;20205;-83
2021/11/13 06:58:14;;;;;;;18.97;10.83;;;1.70;99.90;;;;;;5067106;28;20209;-82
2021/11/13 07:00:40;;;;;;;16.83;10.20;;;;;;;;;;5086320;28;20643;-82
2021/11/13 07:03:07;;;;;;;19.50;10.87;;;;;;;;;;5067410;28;20778;-82
2021/11/13 07:05:33;;;;;;;21.10;11.63;;;1.80;99.90;;;;;;5067463;28;20506;-83
2021/11/13 07:07:59;;;;;;;18.17;11.47;;;;;;;;;;5067428;28;20952;-83
2021/11/13 07:10:25;;;;;;;23.10;12.60;;;2.10;99.90;;;;;;5084929;28;20408;-82
2021/11/13 07:12:51;;;;;;;20.47;12.93;;;2.20;99.90;;;;;;5067068;28;20181;-83
2021/11/13 07:15:18;;;;;;;23.93;13.33;;;2.40;99.90;;;;;;5067330;28;20457;-83
2021/11/13 07:17:44;;;;;;;21.47;12.43;;;2.40;99.90;;;;;;5067271;28;20287;-82
2021/11/13 07:20:11;;;;;;;19.87;11.73;;;2.40;99.90;;;;;;5067385;28;20184;-82
2021/11/13 07:22:39;;;;;;;19.90;11.83;;;2.50;99.90;;;;;;5067183;28;20181;-82
2021/11/13 07:25:11;;;;;;;19.27;11.73;;;2.60;99.90;;;;;;5074479;28;20201;-82
2021/11/13 07:27:37;;;;;;;17.60;10.23;;;2.70;99.90;;;;;;5070595;28;20416;-83
2021/11/13 07:30:05;;;;;;;19.10;10.47;;;2.80;99.90;;;;;;5066469;28;20838;-82
2021/11/13 07:32:31;;;;;;;14.30;9.73;;;;;;;;;;5066145;28;20418;-83
2021/11/13 07:34:57;;;;;;;14.17;8.93;;;3.00;99.90;;;;;;5065149;28;20967;-83
2021/11/13 07:37:24;;;;;;;18.23;9.37;;;3.20;99.90;;;;;;5082000;28;20212;-83
2021/11/13 07:39:51;;;;;;;13.20;8.43;;;3.30;99.90;;;;;;5066766;28;20184;-82
2021/11/13 07:42:17;;;;;;;14.87;9.07;;;3.50;99.90;;;;;;5085392;28;20181;-83
2021/11/13 07:44:43;;;;;;;14.93;8.73;;;3.80;99.90;;;;;;5067092;28;20485;-82
2021/11/13 07:47:09;;;;;;;14.40;8.50;;;4.00;99.90;;;;;;5070827;28;20185;-82
2021/11/13 07:49:35;;;;;;;13.23;9.10;;;4.40;99.90;;;;;;5094718;28;20210;-82
2021/11/13 07:52:00;;;;;;;14.70;8.60;;;4.80;99.90;;;;;;5083188;28;20223;-82
2021/11/13 07:54:26;;;;;;;12.03;7.63;;;5.30;99.90;;;;;;5087573;28;20193;-82
2021/11/13 07:56:52;;;;;;;12.73;8.60;;;5.60;99.90;;;;;;5062646;28;20209;-83
2021/11/13 07:59:17;;;;;;;11.27;7.33;;;5.80;99.90;;;;;;5080324;28;20654;-82
2021/11/13 08:01:43;;;;;;;16.27;8.47;;;6.60;99.90;;;;;;5060660;28;20181;-82
2021/11/13 08:04:09;;;;;;;10.50;7.30;;;7.30;99.90;;;;;;5059853;28;20186;-82
2021/11/13 08:06:35;;;;;;;10.13;6.60;;;7.30;99.90;;;;;;5078212;28;20182;-82
2021/11/13 08:09:01;;;;;;;15.10;7.60;;;7.40;99.90;;;;;;5078368;28;20177;-82
2021/11/13 08:11:26;;;;;;;11.50;7.37;;;7.30;99.90;;;;;;5085256;28;20185;-83
2021/11/13 08:13:52;;;;;;;12.73;7.63;;;7.20;99.90;;;;;;5080216;28;20186;-83
2021/11/13 08:16:18;;;;;;;11.57;6.80;;;7.10;99.90;;;;;;5062945;28;20215;-83
2021/11/13 08:18:44;;;;;;;10.50;6.77;;;7.00;99.90;;;;;;5064145;28;20624;-84
2021/11/13 08:21:11;;;;;;;10.57;6.83;;;6.70;99.90;;;;;;5081914;28;20193;-83
2021/11/13 08:23:38;;;;;;;8.57;6.67;;;6.50;99.90;;;;;;5082163;28;20190;-84
2021/11/13 08:26:04;;;;;;;8.17;6.60;;;6.40;99.90;;;;;;5061581;28;20220;-83
2021/11/13 08:28:30;;;;;;;10.87;7.43;;;6.20;99.90;;;;;;5079857;28;20175;-83
2021/11/13 08:30:56;;;;;;;11.10;7.30;;;6.10;99.90;;;;;;5063139;28;20187;-83
2021/11/13 08:33:23;;;;;;;13.17;7.50;;;6.10;99.90;;;;;;5081248;28;20186;-83
2021/11/13 08:35:49;;;;;;;10.47;7.30;;;6.10;99.90;;;;;;5081627;28;20192;-83
2021/11/13 08:38:18;;;;;;;14.93;8.53;;;6.10;99.90;;;;;;5062726;28;20661;-83
2021/11/13 08:40:44;;;;;;;13.30;8.50;;;6.10;99.90;;;;;;5077211;28;20171;-83
2021/11/13 08:43:11;;;;;;;12.90;7.80;;;6.10;99.90;;;;;;5058164;28;20179;-83
2021/11/13 08:45:37;;;;;;;12.70;7.57;;;6.10;99.90;;;;;;5060532;28;20190;-82
2021/11/13 08:48:03;;;;;;;10.73;7.80;;;6.10;99.90;;;;;;5047708;28;20195;-83
2021/11/13 08:50:30;;;;;;;15.73;8.63;;;6.20;99.90;;;;;;5064646;28;20238;-84
2021/11/13 08:52:59;;;;;;;15.23;8.13;;;6.20;99.90;;;;;;5063347;28;20186;-84
2021/11/13 08:55:27;;;;;;;11.77;8.83;;;6.30;99.90;;;;;;5045658;28;20203;-84
2021/11/13 08:57:54;;;;;;;12.67;8.33;;;6.30;99.90;;;;;;5046305;28;20574;-85
2021/11/13 09:00:44;;;;;;;14.93;8.23;;;6.30;99.90;;;;;;5045563;28;20227;-84
2021/11/13 09:03:16;;;;;;;11.70;7.90;;;6.40;99.90;;;;;;5044186;28;20178;-83
2021/11/13 09:05:42;;;;;;;11.63;7.60;;;6.30;99.90;;;;;;5060745;28;20198;-83
2021/11/13 09:08:09;;;;;;;11.70;7.60;;;6.30;99.90;;;;;;5044596;28;20270;-81
2021/11/13 09:10:37;;;;;;;10.87;7.10;;;6.40;99.90;;;;;;5044478;28;20631;-85
2021/11/13 09:13:03;;;;;;;16.57;7.87;;;6.50;99.90;;;;;;5043294;28;20194;-84
2021/11/13 09:15:32;;;;;;;28.73;17.23;;;6.60;99.90;;;;;;5047589;28;20202;-81
2021/11/13 09:17:58;;;;;;;51.60;28.47;;;6.60;99.90;;;;;;5072630;28;20207;-82
2021/11/13 09:20:25;;;;;;;26.47;13.80;;;6.70;99.90;;;;;;5052947;28;20206;-83
2021/11/13 09:22:51;;;;;;;14.90;10.77;;;6.90;99.90;;;;;;5050083;28;20192;-82
2021/11/13 09:25:16;;;;;;;11.60;7.90;;;7.10;99.90;;;;;;5070007;28;20250;-83
2021/11/13 09:27:44;;;;;;;11.67;6.73;;;7.20;99.90;;;;;;5052473;28;20429;-83
2021/11/13 09:30:14;;;;;;;10.63;5.90;;;7.40;99.90;;;;;;5069886;28;20177;-83
2021/11/13 09:32:43;;;;;;;8.50;6.10;;;7.80;99.90;;;;;;5047690;28;20174;-82
2021/11/13 09:35:09;;;;;;;8.73;5.97;;;8.00;99.90;;;;;;5069786;28;20189;-83
2021/11/13 09:37:34;;;;;;;9.37;5.83;;;7.90;99.90;;;;;;5070320;28;20197;-82
2021/11/13 09:40:00;;;;;;;12.60;6.50;;;8.10;99.90;;;;;;5058935;28;20264;-81
2021/11/13 09:42:26;;;;;;;8.90;6.00;;;8.20;99.90;;;;;;5075712;28;20202;-83
2021/11/13 09:44:52;;;;;;;8.40;5.60;;;8.30;99.90;;;;;;5059205;28;20199;-83
2021/11/13 09:47:18;;;;;;;8.77;4.90;;;8.40;99.90;;;;;;5056009;28;20193;-84
2021/11/13 09:49:44;;;;;;;13.97;5.70;;;8.50;99.90;;;;;;5073573;28;20171;-84
2021/11/13 09:52:13;;;;;;;7.43;4.93;;;8.60;99.90;;;;;;5065907;28;20181;-84
2021/11/13 09:54:43;;;;;;;9.73;5.17;;;8.70;99.90;;;;;;5047738;28;20564;-85
2021/11/13 09:57:10;;;;;;;6.63;4.83;;;8.80;99.90;;;;;;5046104;28;20209;-83
2021/11/13 09:59:36;;;;;;;9.70;6.00;;;8.90;99.90;;;;;;5047791;28;20174;-84
2021/11/13 10:02:01;;;;;;;7.80;4.67;;;8.90;99.90;;;;;;5048015;28;20179;-85
2021/11/13 10:04:27;;;;;;;9.13;5.30;;;8.90;99.90;;;;;;5048248;28;20609;-83
2021/11/13 10:06:53;;;;;;;8.10;5.47;;;9.00;99.90;;;;;;5048247;28;20265;-84
2021/11/13 10:09:20;;;;;;;6.20;5.47;;;9.10;99.90;;;;;;5067437;28;20533;-85
2021/11/13 10:11:51;;;;;;;9.23;4.77;;;9.20;99.90;;;;;;5045651;28;20183;-84
2021/11/13 10:14:42;;;;;;;10.43;5.23;;;9.20;99.90;;;;;;5045666;28;20178;-85
2021/11/13 10:17:26;;;;;;;8.23;5.10;;;9.20;99.90;;;;;;5046555;28;20223;-85
2021/11/13 10:19:53;;;;;;;10.97;5.67;;;9.20;99.90;;;;;;5063574;28;20173;-84
2021/11/13 10:22:19;;;;;;;7.57;5.60;;;9.20;99.90;;;;;;5062639;28;20216;-84
2021/11/13 10:24:48;;;;;;;5.07;4.13;;;9.20;99.90;;;;;;5046045;28;20564;-84
2021/11/13 10:27:15;;;;;;;9.20;5.07;;;9.10;99.90;;;;;;5047497;28;20205;-86
2021/11/13 10:29:43;;;;;;;6.33;4.40;;;9.10;99.90;;;;;;5048602;28;20181;-86
2021/11/13 10:32:12;;;;;;;7.70;4.97;;;9.10;99.90;;;;;;5052600;28;20165;-83
2021/11/13 10:34:42;;;;;;;8.07;5.63;;;9.20;99.90;;;;;;5041045;28;20286;-84
2021/11/13 10:37:19;;;;;;;7.80;5.37;;;9.20;99.90;;;;;;5043131;28;20194;-83
2021/11/13 10:39:46;;;;;;;7.13;5.40;;;9.20;99.90;;;;;;5041683;28;20199;-84
2021/11/13 10:42:21;;;;;;;9.37;5.43;;;9.20;99.90;;;;;;5059551;28;20173;-83
2021/11/13 10:44:51;;;;;;;8.37;5.00;;;9.20;99.90;;;;;;5060179;28;20225;-83
2021/11/13 10:47:22;;;;;;;11.50;5.77;;;9.20;99.90;;;;;;5060329;28;20160;-85
2021/11/13 10:49:51;;;;;;;8.87;5.77;;;9.30;99.90;;;;;;5041375;28;20215;-83
2021/11/13 10:52:18;;;;;;;7.57;5.37;;;9.20;99.90;;;;;;5059720;28;20202;-84
2021/11/13 10:54:49;;;;;;;10.40;6.13;;;9.20;99.90;;;;;;5041239;28;20284;-84
2021/11/13 10:57:26;;;;;;;7.37;5.87;;;9.20;99.90;;;;;;5058860;28;20203;-84
2021/11/13 10:59:53;;;;;;;10.17;5.77;;;9.20;99.90;;;;;;5040734;28;20169;-81
2021/11/13 11:02:19;;;;;;;10.97;5.93;;;9.20;99.90;;;;;;5038696;28;20698;-82
2021/11/13 11:04:47;;;;;;;11.70;5.53;;;9.20;99.90;;;;;;5038057;28;20191;-82
2021/11/13 11:07:20;;;;;;;7.47;5.10;;;9.20;99.90;;;;;;5042182;28;20173;-81
2021/11/13 11:09:56;;;;;;;9.67;5.83;;;9.10;99.90;;;;;;5045185;28;20177;-81
2021/11/13 11:12:26;;;;;;;10.57;5.90;;;9.10;99.90;;;;;;5064611;28;20167;-83
2021/11/13 11:14:53;;;;;;;7.67;6.10;;;9.10;99.90;;;;;;5047490;28;20198;-83
2021/11/13 11:17:24;;;;;;;8.93;6.37;;;9.10;99.90;;;;;;5060795;28;20200;-81
2021/11/13 11:19:52;;;;;;;10.30;7.10;;;9.10;99.90;;;;;;5045607;28;20165;-80
2021/11/13 11:22:20;;;;;;;11.57;9.50;;;9.10;99.90;;;;;;5063932;28;20212;-80
2021/11/13 11:24:54;;;;;;;13.23;8.23;;;9.00;99.90;;;;;;5047180;28;20190;-80
2021/11/13 11:27:27;;;;;;;12.03;8.80;;;9.00;99.90;;;;;;5048352;28;20179;-81
2021/11/13 11:30:16;;;;;;;10.23;5.90;;;9.00;99.90;;;;;;5064738;28;20154;-80
2021/11/13 11:32:42;;;;;;;8.60;6.43;;;9.00;99.90;;;;;;5066034;28;20661;-80
2021/11/13 11:35:23;;;;;;;9.17;6.27;;;8.90;99.90;;;;;;5074830;28;20195;-80
2021/11/13 11:37:53;;;;;;;8.13;5.93;;;8.90;99.90;;;;;;5067173;28;20186;-82
2021/11/13 11:40:26;;;;;;;9.40;6.27;;;8.90;99.90;;;;;;5059023;28;20243;-80
2021/11/13 11:42:52;;;;;;;7.30;5.70;;;8.80;99.90;;;;;;5076072;28;20174;-82
2021/11/13 11:45:21;;;;;;;9.27;5.83;;;8.80;99.90;;;;;;5049011;28;20204;-83
2021/11/13 11:47:51;;;;;;;8.60;6.33;;;8.80;99.90;;;;;;5043655;28;20182;-82
2021/11/13 11:50:25;;;;;;;8.97;5.77;;;8.70;99.90;;;;;;5044144;28;20185;-83
2021/11/13 11:52:56;;;;;;;9.53;6.77;;;8.70;99.90;;;;;;5042838;28;20671;-82
2021/11/13 11:55:23;;;;;;;9.10;6.73;;;8.60;99.90;;;;;;5045056;28;20207;-82
2021/11/13 11:57:58;;;;;;;20.60;7.57;;;8.50;99.90;;;;;;5061331;28;20206;-84
2021/11/13 12:00:27;;;;;;;21.27;8.07;;;8.50;99.90;;;;;;5044842;28;20191;-82
2021/11/13 12:02:55;;;;;;;72.03;10.23;;;8.40;99.90;;;;;;5043191;28;20178;-82
2021/11/13 12:05:24;;;;;;;16.57;7.20;;;8.30;99.90;;;;;;5043519;28;20208;-82
2021/11/13 12:07:51;;;;;;;22.73;6.93;;;8.20;99.90;;;;;;5046300;28;20190;-82
2021/11/13 12:10:20;;;;;;;9.37;6.97;;;8.10;99.90;;;;;;5047495;28;20185;-84
2021/11/13 12:13:07;;;;;;;11.80;6.97;;;8.00;99.90;;;;;;5047122;28;20181;-83
2021/11/13 12:15:42;;;;;;;10.53;7.47;;;8.00;99.90;;;;;;5046943;28;20200;-84
2021/11/13 12:18:20;;;;;;;15.83;7.00;;;7.90;99.90;;;;;;5044255;28;20205;-84
2021/11/13 12:21:07;;;;;;;12.47;7.23;;;7.80;99.90;;;;;;5066205;28;20648;-82
2021/11/13 12:23:44;;;;;;;15.83;7.10;;;7.70;99.90;;;;;;5048427;28;20221;-84
2021/11/13 12:26:11;;;;;;;14.47;8.27;;;7.60;99.90;;;;;;5047405;28;20202;-84
2021/11/13 12:28:42;;;;;;;13.67;8.77;;;7.50;99.90;;;;;;5047773;28;20227;-82
2021/11/13 12:31:28;;;;;;;15.70;10.17;;;7.40;99.90;;;;;;5047571;28;20181;-83
2021/11/13 12:33:57;;;;;;;15.67;11.30;;;7.40;99.90;;;;;;5047337;28;20222;-84
2021/11/13 12:36:36;;;;;;;18.43;11.20;;;7.40;99.90;;;;;;5045066;28;20208;-81
2021/11/13 12:39:21;;;;;;;16.73;10.57;;;7.40;99.90;;;;;;5059065;28;20177;-80
2021/11/13 12:41:58;;;;;;;23.43;12.50;;;7.30;99.90;;;;;;5041250;28;20541;-80
2021/11/13 12:44:37;;;;;;;34.80;18.50;;;7.30;99.90;;;;;;5058611;28;20157;-80
2021/11/13 12:47:10;;;;;;;27.90;15.10;;;7.30;99.90;;;;;;5040150;28;20259;-79
2021/11/13 12:49:59;;;;;;;40.03;24.80;;;7.30;99.90;;;;;;5039153;28;20308;-79
2021/11/13 12:52:44;;;;;;;23.33;16.57;;;7.30;99.90;;;;;;5057257;28;20214;-79
2021/11/13 12:55:41;;;;;;;13.60;8.47;;;7.30;99.90;;;;;;5057825;28;20250;-80
2021/11/13 12:58:13;;;;;;;13.73;8.03;;;7.40;99.90;;;;;;5040291;28;20221;-81